createdAt,value
2017-12-09T00:00:23.098Z,0.00
2017-12-09T00:01:23.091Z,0.00
2017-12-09T00:03:16.036Z,0.00
2017-12-09T00:04:15.997Z,0.00
2017-12-09T00:06:08.910Z,0.00
2017-12-09T00:07:08.903Z,0.00
2017-12-09T00:09:01.814Z,0.00
2017-12-09T00:10:01.809Z,0.00
2017-12-09T00:11:54.704Z,0.00
2017-12-09T00:12:54.715Z,0.00
2017-12-09T00:14:47.627Z,0.00
2017-12-09T00:15:47.622Z,0.00
2017-12-09T00:17:40.511Z,0.00
2017-12-09T00:18:40.526Z,0.00
2017-12-09T00:20:33.451Z,0.00
2017-12-09T00:21:33.450Z,0.00
2017-12-09T00:23:26.339Z,0.00
2017-12-09T00:24:26.354Z,0.00
2017-12-09T00:26:19.262Z,0.00
2017-12-09T00:27:19.260Z,0.00
2017-12-09T00:29:12.167Z,0.00
2017-12-09T00:30:12.162Z,0.00
2017-12-09T00:32:05.058Z,0.00
2017-12-09T00:33:05.074Z,0.00
2017-12-09T00:34:58.002Z,0.00
2017-12-09T00:35:57.977Z,0.00
2017-12-09T00:37:50.871Z,0.00
2017-12-09T00:38:50.883Z,0.00
2017-12-09T00:40:43.793Z,0.00
2017-12-09T00:41:43.790Z,0.00
2017-12-09T00:43:36.725Z,0.00
2017-12-09T00:44:36.695Z,0.00
2017-12-09T00:46:30.578Z,0.00
2017-12-09T00:47:30.593Z,0.00
2017-12-09T00:49:23.508Z,0.00
2017-12-09T00:50:23.502Z,0.00
2017-12-09T00:52:16.446Z,0.00
2017-12-09T00:53:16.405Z,0.00
2017-12-09T00:55:09.330Z,0.00
2017-12-09T00:56:09.308Z,0.00
2017-12-09T00:58:02.207Z,0.00
2017-12-09T00:59:02.213Z,0.00
2017-12-09T01:00:55.125Z,0.00
2017-12-09T01:01:55.120Z,0.00
2017-12-09T01:03:48.032Z,0.00
2017-12-09T01:04:48.032Z,0.00
2017-12-09T01:06:40.921Z,0.00
2017-12-09T01:07:40.935Z,0.00
2017-12-09T01:09:33.868Z,0.00
2017-12-09T01:10:33.839Z,0.00
2017-12-09T01:12:26.739Z,0.00
2017-12-09T01:13:26.745Z,0.00
2017-12-09T01:15:19.659Z,0.00
2017-12-09T01:16:19.656Z,0.00
2017-12-09T01:18:12.545Z,0.00
2017-12-09T01:19:12.558Z,0.00
2017-12-09T01:21:05.977Z,0.00
2017-12-09T01:22:05.956Z,0.00
2017-12-09T01:23:58.873Z,0.00
2017-12-09T01:24:58.862Z,0.00
2017-12-09T01:26:51.753Z,0.00
2017-12-09T01:27:51.804Z,0.00
2017-12-09T01:29:44.675Z,0.00
2017-12-09T01:30:44.728Z,0.00
2017-12-09T01:32:37.562Z,0.00
2017-12-09T01:33:37.614Z,0.00
2017-12-09T01:35:30.526Z,0.00
2017-12-09T01:36:30.481Z,0.00
2017-12-09T01:38:23.424Z,0.00
2017-12-09T01:39:24.427Z,0.00
2017-12-09T01:41:16.349Z,0.00
2017-12-09T01:42:16.288Z,0.00
2017-12-09T01:44:09.201Z,0.00
2017-12-09T01:45:09.193Z,0.00
2017-12-09T01:47:02.298Z,0.00
2017-12-09T01:48:02.297Z,0.00
2017-12-09T01:49:55.251Z,0.00
2017-12-09T01:50:55.197Z,0.00
2017-12-09T01:52:48.106Z,0.00
2017-12-09T01:53:48.101Z,0.00
2017-12-09T01:55:41.009Z,0.00
2017-12-09T01:56:41.005Z,0.00
2017-12-09T01:58:33.897Z,0.00
2017-12-09T01:59:33.911Z,0.00
2017-12-09T02:01:26.821Z,0.00
2017-12-09T02:02:26.827Z,0.00
2017-12-09T02:04:19.747Z,0.00
2017-12-09T02:05:19.722Z,0.00
2017-12-09T02:07:12.615Z,0.00
2017-12-09T02:08:12.629Z,0.00
2017-12-09T02:10:05.536Z,0.00
2017-12-09T02:11:05.530Z,0.00
2017-12-09T02:12:58.428Z,0.00
2017-12-09T02:13:58.985Z,0.00
2017-12-09T02:15:51.352Z,0.00
2017-12-09T02:16:51.349Z,0.00
2017-12-09T02:18:44.264Z,0.00
2017-12-09T02:19:44.252Z,0.00
2017-12-09T02:21:37.162Z,0.00
2017-12-09T02:22:37.215Z,0.00
2017-12-09T02:24:30.285Z,0.00
2017-12-09T02:25:30.279Z,0.00
2017-12-09T02:27:23.171Z,0.00
2017-12-09T02:28:23.243Z,0.00
2017-12-09T02:30:16.103Z,0.00
2017-12-09T02:31:16.098Z,0.00
2017-12-09T02:33:08.992Z,0.00
2017-12-09T02:34:09.006Z,0.00
2017-12-09T02:36:01.919Z,0.00
2017-12-09T02:37:01.911Z,0.00
2017-12-09T02:38:54.841Z,0.00
2017-12-09T02:39:54.825Z,0.00
2017-12-09T02:41:47.730Z,0.00
2017-12-09T02:42:47.728Z,0.00
2017-12-09T02:44:40.638Z,0.00
2017-12-09T02:45:40.632Z,0.00
2017-12-09T02:47:33.522Z,0.00
2017-12-09T02:48:33.537Z,0.00
2017-12-09T02:50:26.449Z,0.00
2017-12-09T02:51:26.446Z,0.00
2017-12-09T02:53:19.364Z,0.00
2017-12-09T02:54:19.352Z,0.00
2017-12-09T02:56:12.261Z,0.00
2017-12-09T02:57:12.258Z,0.00
2017-12-09T02:59:05.149Z,0.00
2017-12-09T03:00:05.162Z,0.00
2017-12-09T03:01:58.073Z,0.00
2017-12-09T03:02:58.066Z,0.00
2017-12-09T03:04:51.125Z,0.00
2017-12-09T03:05:51.124Z,0.00
2017-12-09T03:07:44.017Z,0.00
2017-12-09T03:08:44.027Z,0.00
2017-12-09T03:10:37.018Z,0.00
2017-12-09T03:11:36.935Z,0.00
2017-12-09T03:13:29.825Z,0.00
2017-12-09T03:14:29.840Z,0.00
2017-12-09T03:16:22.751Z,0.00
2017-12-09T03:17:22.746Z,0.00
2017-12-09T03:19:15.787Z,0.00
2017-12-09T03:20:15.796Z,0.00
2017-12-09T03:22:08.703Z,0.00
2017-12-09T03:23:08.700Z,0.00
2017-12-09T03:25:01.610Z,0.00
2017-12-09T03:26:01.604Z,0.00
2017-12-09T03:27:54.643Z,0.00
2017-12-09T03:28:54.661Z,0.00
2017-12-09T03:30:47.609Z,0.00
2017-12-09T03:31:47.567Z,0.00
2017-12-09T03:33:40.463Z,0.00
2017-12-09T03:34:40.474Z,0.00
2017-12-09T03:36:33.519Z,0.00
2017-12-09T03:37:33.517Z,0.00
2017-12-09T03:39:26.408Z,0.00
2017-12-09T03:40:26.422Z,0.00
2017-12-09T03:42:19.336Z,0.00
2017-12-09T03:43:19.327Z,0.00
2017-12-09T03:45:12.385Z,0.00
2017-12-09T03:46:12.379Z,0.00
2017-12-09T03:48:05.423Z,0.00
2017-12-09T03:49:05.436Z,0.00
2017-12-09T03:50:58.353Z,0.00
2017-12-09T03:51:58.343Z,0.00
2017-12-09T03:53:51.237Z,0.00
2017-12-09T03:54:51.261Z,0.00
2017-12-09T03:56:44.159Z,0.00
2017-12-09T03:57:44.155Z,0.00
2017-12-09T03:59:37.046Z,0.00
2017-12-09T04:00:37.060Z,0.00
2017-12-09T04:02:30.111Z,0.00
2017-12-09T04:03:30.107Z,0.00
2017-12-09T04:05:23.019Z,0.00
2017-12-09T04:06:23.018Z,0.00
2017-12-09T04:08:15.912Z,0.00
2017-12-09T04:09:15.925Z,0.00
2017-12-09T04:11:08.839Z,0.00
2017-12-09T04:12:08.834Z,0.00
2017-12-09T04:14:02.723Z,0.00
2017-12-09T04:15:02.738Z,0.00
2017-12-09T04:16:55.649Z,0.00
2017-12-09T04:17:55.644Z,0.00
2017-12-09T04:19:48.594Z,0.00
2017-12-09T04:20:48.553Z,0.00
2017-12-09T04:22:41.464Z,0.00
2017-12-09T04:23:41.460Z,0.00
2017-12-09T04:25:34.380Z,0.00
2017-12-09T04:26:34.377Z,0.00
2017-12-09T04:28:27.276Z,0.00
2017-12-09T04:29:27.289Z,0.00
2017-12-09T04:31:20.219Z,0.00
2017-12-09T04:32:20.195Z,0.00
2017-12-09T04:34:13.090Z,0.00
2017-12-09T04:35:13.103Z,0.00
2017-12-09T04:37:06.015Z,0.00
2017-12-09T04:38:06.012Z,0.00
2017-12-09T04:39:58.909Z,0.00
2017-12-09T04:40:58.918Z,0.00
2017-12-09T04:42:51.850Z,0.00
2017-12-09T04:43:51.826Z,0.00
2017-12-09T04:45:44.738Z,0.00
2017-12-09T04:46:44.732Z,0.00
2017-12-09T04:48:37.630Z,0.00
2017-12-09T04:49:37.644Z,0.00
2017-12-09T04:51:30.561Z,0.00
2017-12-09T04:52:30.553Z,0.00
2017-12-09T04:54:23.448Z,0.00
2017-12-09T04:55:23.462Z,0.00
2017-12-09T04:57:16.375Z,0.00
2017-12-09T04:58:16.370Z,0.00
2017-12-09T05:00:09.467Z,0.00
2017-12-09T05:01:09.483Z,0.00
2017-12-09T05:03:02.401Z,0.00
2017-12-09T05:04:02.389Z,0.00
2017-12-09T05:05:55.310Z,0.00
2017-12-09T05:06:55.300Z,0.00
2017-12-09T05:08:48.192Z,0.00
2017-12-09T05:09:48.213Z,0.00
2017-12-09T05:11:41.120Z,0.00
2017-12-09T05:12:41.115Z,0.00
2017-12-09T05:14:34.012Z,0.00
2017-12-09T05:15:34.028Z,0.00
2017-12-09T05:17:27.070Z,0.00
2017-12-09T05:18:27.065Z,0.00
2017-12-09T05:20:19.963Z,0.00
2017-12-09T05:21:19.972Z,0.00
2017-12-09T05:23:12.883Z,0.00
2017-12-09T05:24:12.880Z,0.00
2017-12-09T05:26:05.793Z,0.00
2017-12-09T05:27:05.786Z,0.00
2017-12-09T05:28:58.686Z,0.00
2017-12-09T05:29:58.698Z,0.00
2017-12-09T05:31:51.607Z,0.00
2017-12-09T05:32:51.629Z,0.00
2017-12-09T05:34:44.526Z,0.00
2017-12-09T05:35:44.516Z,0.00
2017-12-09T05:37:37.426Z,0.00
2017-12-09T05:38:37.425Z,0.00
2017-12-09T05:40:30.327Z,0.00
2017-12-09T05:41:30.330Z,0.00
2017-12-09T05:43:23.238Z,0.00
2017-12-09T05:44:23.235Z,0.00
2017-12-09T05:46:16.151Z,0.00
2017-12-09T05:47:16.144Z,0.00
2017-12-09T05:49:09.036Z,0.00
2017-12-09T05:50:09.050Z,0.00
2017-12-09T05:52:01.963Z,0.00
2017-12-09T05:53:01.956Z,0.00
2017-12-09T05:54:54.859Z,0.00
2017-12-09T05:55:54.874Z,0.00
2017-12-09T05:57:47.794Z,0.00
2017-12-09T05:58:47.782Z,0.00
2017-12-09T06:00:40.689Z,0.00
2017-12-09T06:01:40.696Z,0.00
2017-12-09T06:03:33.607Z,0.00
2017-12-09T06:04:33.604Z,0.00
2017-12-09T06:06:26.519Z,0.00
2017-12-09T06:07:26.514Z,0.00
2017-12-09T06:09:19.413Z,0.00
2017-12-09T06:10:19.427Z,0.00
2017-12-09T06:12:12.340Z,0.00
2017-12-09T06:13:12.336Z,0.00
2017-12-09T06:15:05.233Z,0.00
2017-12-09T06:16:05.246Z,0.00
2017-12-09T06:17:58.157Z,0.00
2017-12-09T06:18:58.154Z,0.00
2017-12-09T06:20:51.075Z,0.00
2017-12-09T06:21:51.067Z,0.00
2017-12-09T06:23:44.027Z,0.00
2017-12-09T06:24:44.025Z,0.00
2017-12-09T06:26:36.942Z,0.00
2017-12-09T06:27:36.945Z,0.00
2017-12-09T06:29:29.919Z,0.00
2017-12-09T06:30:29.933Z,0.00
2017-12-09T06:32:22.894Z,0.00
2017-12-09T06:33:22.888Z,0.00
2017-12-09T06:35:15.949Z,0.00
2017-12-09T06:36:15.954Z,0.00
2017-12-09T06:38:09.021Z,0.00
2017-12-09T06:39:09.003Z,0.00
2017-12-09T06:41:01.941Z,0.00
2017-12-09T06:42:01.955Z,0.00
2017-12-09T06:43:54.915Z,0.00
2017-12-09T06:44:54.913Z,0.00
2017-12-09T06:46:47.867Z,0.00
2017-12-09T06:47:47.866Z,0.00
2017-12-09T06:49:40.806Z,0.00
2017-12-09T06:50:40.819Z,0.00
2017-12-09T06:52:33.776Z,0.00
2017-12-09T06:53:33.771Z,0.00
2017-12-09T06:55:26.713Z,0.00
2017-12-09T06:56:26.727Z,4.00
2017-12-09T06:58:19.727Z,4.00
2017-12-09T06:59:19.678Z,0.00
2017-12-09T07:01:12.623Z,4.00
2017-12-09T07:02:12.636Z,4.00
2017-12-09T07:04:05.594Z,4.00
2017-12-09T07:05:05.589Z,4.00
2017-12-09T07:06:58.545Z,4.00
2017-12-09T07:07:58.540Z,8.00
2017-12-09T07:09:51.482Z,8.00
2017-12-09T07:10:51.496Z,4.00
2017-12-09T07:12:44.455Z,12.00
2017-12-09T07:13:44.450Z,12.00
2017-12-09T07:15:37.393Z,12.00
2017-12-09T07:16:37.406Z,16.00
2017-12-09T07:18:30.364Z,20.00
2017-12-09T07:19:30.360Z,20.00
2017-12-09T07:21:23.303Z,28.00
2017-12-09T07:22:23.313Z,32.00
2017-12-09T07:24:16.271Z,36.00
2017-12-09T07:25:16.268Z,40.00
2017-12-09T07:27:09.226Z,40.00
2017-12-09T07:28:09.222Z,36.00
2017-12-09T07:30:02.179Z,48.00
2017-12-09T07:31:02.177Z,48.00
2017-12-09T07:32:55.133Z,60.00
2017-12-09T07:33:55.128Z,64.00
2017-12-09T07:35:48.070Z,76.00
2017-12-09T07:36:48.084Z,88.00
2017-12-09T07:38:41.045Z,112.00
2017-12-09T07:39:41.040Z,124.00
2017-12-09T07:41:33.979Z,152.00
2017-12-09T07:42:34.007Z,176.00
2017-12-09T07:44:26.966Z,208.00
2017-12-09T07:45:26.947Z,208.00
2017-12-09T07:47:19.907Z,300.00
2017-12-09T07:48:19.902Z,312.00
2017-12-09T07:50:12.845Z,308.00
2017-12-09T07:51:12.856Z,400.00
2017-12-09T07:53:05.817Z,508.00
2017-12-09T07:54:05.814Z,496.00
2017-12-09T07:55:58.749Z,416.00
2017-12-09T07:56:58.763Z,448.00
2017-12-09T07:58:51.720Z,344.00
2017-12-09T07:59:51.717Z,340.00
2017-12-09T08:01:45.209Z,364.00
2017-12-09T08:02:45.184Z,388.00
2017-12-09T08:04:38.123Z,392.00
2017-12-09T08:05:38.137Z,400.00
2017-12-09T08:07:31.097Z,556.00
2017-12-09T08:08:31.093Z,576.00
2017-12-09T08:10:24.036Z,672.00
2017-12-09T08:11:24.050Z,676.00
2017-12-09T08:13:17.010Z,608.00
2017-12-09T08:14:17.001Z,628.00
2017-12-09T08:16:11.482Z,700.00
2017-12-09T08:17:11.507Z,656.00
2017-12-09T08:19:05.987Z,1148.00
2017-12-09T08:20:05.980Z,824.00
2017-12-09T08:21:59.450Z,884.00
2017-12-09T08:22:59.447Z,872.00
2017-12-09T08:24:52.388Z,996.00
2017-12-09T08:25:52.400Z,940.00
2017-12-09T08:27:45.873Z,912.00
2017-12-09T08:28:45.870Z,848.00
2017-12-09T08:30:39.335Z,736.00
2017-12-09T08:31:39.347Z,740.00
2017-12-09T08:33:32.294Z,808.00
2017-12-09T08:34:32.288Z,776.00
2017-12-09T08:36:25.231Z,784.00
2017-12-09T08:37:25.244Z,860.00
2017-12-09T08:39:18.199Z,916.00
2017-12-09T08:40:18.193Z,836.00
2017-12-09T08:42:11.167Z,896.00
2017-12-09T08:43:11.151Z,900.00
2017-12-09T08:45:04.093Z,1020.00
2017-12-09T08:46:04.105Z,1252.00
2017-12-09T08:47:57.064Z,1088.00
2017-12-09T08:48:57.066Z,1124.00
2017-12-09T08:50:50.509Z,1240.00
2017-12-09T08:51:50.523Z,1316.00
2017-12-09T08:53:43.484Z,1524.00
2017-12-09T08:54:43.479Z,1700.00
2017-12-09T08:56:36.428Z,1952.00
2017-12-09T08:57:36.432Z,2416.00
2017-12-09T08:59:29.412Z,3140.00
2017-12-09T09:00:29.387Z,3144.00
2017-12-09T09:02:22.351Z,2696.00
2017-12-09T09:03:22.342Z,2752.00
2017-12-09T09:05:15.283Z,2600.00
2017-12-09T09:06:15.297Z,2920.00
2017-12-09T09:08:08.256Z,3556.00
2017-12-09T09:09:08.248Z,3528.00
2017-12-09T09:11:01.239Z,3872.00
2017-12-09T09:12:01.212Z,3944.00
2017-12-09T09:13:54.163Z,3144.00
2017-12-09T09:14:54.162Z,3068.00
2017-12-09T09:16:48.682Z,3148.00
2017-12-09T09:17:48.758Z,2656.00
2017-12-09T09:19:41.606Z,1492.00
2017-12-09T09:20:41.620Z,1400.00
2017-12-09T09:22:34.636Z,1436.00
2017-12-09T09:23:34.607Z,1504.00
2017-12-09T09:25:27.617Z,1536.00
2017-12-09T09:26:27.614Z,1412.00
2017-12-09T09:28:20.570Z,1420.00
2017-12-09T09:29:20.566Z,1468.00
2017-12-09T09:31:14.019Z,2024.00
2017-12-09T09:32:14.034Z,2704.00
2017-12-09T09:34:07.038Z,3880.00
2017-12-09T09:35:06.987Z,3840.00
2017-12-09T09:37:01.715Z,3744.00
2017-12-09T09:38:01.673Z,3712.00
2017-12-09T09:39:57.490Z,3748.00
2017-12-09T09:40:57.057Z,4228.00
2017-12-09T09:42:50.576Z,3732.00
2017-12-09T09:43:50.598Z,3640.00
2017-12-09T09:45:44.011Z,3840.00
2017-12-09T09:48:15.728Z,4220.00
2017-12-09T09:49:15.730Z,3492.00
2017-12-09T09:51:08.727Z,3520.00
2017-12-09T09:52:08.741Z,3172.00
2017-12-09T09:54:02.287Z,3324.00
2017-12-09T09:55:02.302Z,3440.00
2017-12-09T09:56:55.143Z,3036.00
2017-12-09T09:57:55.155Z,3196.00
2017-12-09T09:59:48.126Z,2812.00
2017-12-09T10:00:48.122Z,2752.00
2017-12-09T10:02:41.591Z,3004.00
2017-12-09T10:03:41.579Z,3504.00
2017-12-09T10:05:34.519Z,3384.00
2017-12-09T10:06:34.536Z,3552.00
2017-12-09T10:08:27.490Z,4180.00
2017-12-09T10:09:27.484Z,4860.00
2017-12-09T10:11:20.425Z,4796.00
2017-12-09T10:12:20.441Z,4512.00
2017-12-09T10:14:13.402Z,4228.00
2017-12-09T10:15:13.398Z,4424.00
2017-12-09T10:17:07.870Z,4864.00
2017-12-09T10:18:07.885Z,5048.00
2017-12-09T10:20:01.354Z,5796.00
2017-12-09T10:21:01.352Z,6308.00
2017-12-09T10:22:54.319Z,4716.00
2017-12-09T10:23:54.306Z,5140.00
2017-12-09T10:25:47.248Z,4456.00
2017-12-09T10:26:47.259Z,5184.00
2017-12-09T10:28:40.217Z,4156.00
2017-12-09T10:29:40.211Z,3152.00
2017-12-09T10:31:33.152Z,2836.00
2017-12-09T10:32:33.170Z,2368.00
2017-12-09T10:34:26.125Z,2184.00
2017-12-09T10:35:26.121Z,3032.00
2017-12-09T10:37:19.060Z,4272.00
2017-12-09T10:38:19.084Z,4140.00
2017-12-09T10:40:12.030Z,2388.00
2017-12-09T10:41:12.032Z,2156.00
2017-12-09T10:43:04.993Z,2684.00
2017-12-09T10:44:04.984Z,3016.00
2017-12-09T10:45:57.926Z,3380.00
2017-12-09T10:46:57.939Z,2804.00
2017-12-09T10:48:50.896Z,2408.00
2017-12-09T10:49:50.891Z,2356.00
2017-12-09T10:51:43.833Z,2092.00
2017-12-09T10:52:43.945Z,1916.00
2017-12-09T10:54:36.815Z,2284.00
2017-12-09T10:55:36.799Z,2252.00
2017-12-09T10:57:29.766Z,2260.00
2017-12-09T10:58:29.754Z,2160.00
2017-12-09T11:00:22.713Z,1712.00
2017-12-09T11:01:22.711Z,1544.00
2017-12-09T11:03:15.670Z,1568.00
2017-12-09T11:04:15.664Z,1584.00
2017-12-09T11:06:08.610Z,1676.00
2017-12-09T11:07:08.619Z,1956.00
2017-12-09T11:09:01.574Z,2524.00
2017-12-09T11:10:01.570Z,2368.00
2017-12-09T11:11:54.510Z,2228.00
2017-12-09T11:12:54.527Z,2240.00
2017-12-09T11:14:47.479Z,2724.00
2017-12-09T11:15:47.479Z,2948.00
2017-12-09T11:17:40.423Z,3296.00
2017-12-09T11:18:40.434Z,3280.00
2017-12-09T11:20:33.903Z,3156.00
2017-12-09T11:21:33.900Z,3252.00
2017-12-09T11:23:26.858Z,2832.00
2017-12-09T11:24:26.856Z,2868.00
2017-12-09T11:26:19.797Z,2872.00
2017-12-09T11:27:19.807Z,2532.00
2017-12-09T11:29:12.764Z,2900.00
2017-12-09T11:30:12.764Z,2660.00
2017-12-09T11:32:05.704Z,2852.00
2017-12-09T11:33:05.723Z,3320.00
2017-12-09T11:34:58.677Z,3940.00
2017-12-09T11:35:58.671Z,3804.00
2017-12-09T11:37:51.613Z,3680.00
2017-12-09T11:38:51.624Z,3900.00
2017-12-09T11:40:44.582Z,3088.00
2017-12-09T11:41:44.584Z,3408.00
2017-12-09T11:43:37.540Z,3900.00
2017-12-09T11:44:37.539Z,3860.00
2017-12-09T11:46:30.471Z,3576.00
2017-12-09T11:47:30.510Z,3100.00
2017-12-09T11:49:23.535Z,3520.00
2017-12-09T11:50:23.451Z,3228.00
2017-12-09T11:52:16.382Z,3224.00
2017-12-09T11:53:16.539Z,3344.00
2017-12-09T11:55:09.351Z,3012.00
2017-12-09T11:56:09.348Z,2844.00
2017-12-09T11:58:02.298Z,2872.00
2017-12-09T11:59:02.312Z,3284.00
2017-12-09T12:00:55.259Z,3096.00
2017-12-09T12:01:55.257Z,2980.00
2017-12-09T12:03:48.220Z,3196.00
2017-12-09T12:04:48.216Z,3124.00
2017-12-09T12:06:41.175Z,3368.00
2017-12-09T12:07:41.166Z,3676.00
2017-12-09T12:09:34.635Z,4316.00
2017-12-09T12:10:34.630Z,5140.00
2017-12-09T12:12:28.087Z,4476.00
2017-12-09T12:13:28.101Z,3940.00
2017-12-09T12:15:21.059Z,3328.00
2017-12-09T12:16:21.054Z,2976.00
2017-12-09T12:18:13.995Z,2616.00
2017-12-09T12:19:14.008Z,2584.00
2017-12-09T12:21:06.983Z,2668.00
2017-12-09T12:22:06.975Z,2684.00
2017-12-09T12:23:59.920Z,2460.00
2017-12-09T12:24:59.915Z,2584.00
2017-12-09T12:26:52.857Z,2560.00
2017-12-09T12:27:52.868Z,2516.00
2017-12-09T12:29:45.829Z,2380.00
2017-12-09T12:30:45.827Z,2488.00
2017-12-09T12:32:38.765Z,2480.00
2017-12-09T12:33:38.779Z,2348.00
2017-12-09T12:35:31.735Z,2096.00
2017-12-09T12:36:31.730Z,1904.00
2017-12-09T12:38:24.673Z,1972.00
2017-12-09T12:39:24.686Z,2036.00
2017-12-09T12:41:17.648Z,1960.00
2017-12-09T12:42:17.642Z,2164.00
2017-12-09T12:44:10.597Z,2240.00
2017-12-09T12:45:10.594Z,2148.00
2017-12-09T12:47:03.536Z,1704.00
2017-12-09T12:48:03.553Z,1708.00
2017-12-09T12:49:56.509Z,2088.00
2017-12-09T12:50:56.504Z,2400.00
2017-12-09T12:52:51.016Z,1704.00
2017-12-09T12:53:50.990Z,1656.00
2017-12-09T12:55:43.953Z,1672.00
2017-12-09T12:56:43.951Z,2020.00
2017-12-09T12:58:36.887Z,2512.00
2017-12-09T12:59:36.899Z,2472.00
2017-12-09T13:01:29.861Z,2312.00
2017-12-09T13:02:29.855Z,2388.00
2017-12-09T13:04:22.816Z,2212.00
2017-12-09T13:05:22.814Z,2348.00
2017-12-09T13:07:15.752Z,2464.00
2017-12-09T13:08:15.775Z,2396.00
2017-12-09T13:10:08.774Z,1916.00
2017-12-09T13:11:08.815Z,1504.00
2017-12-09T13:13:02.174Z,1172.00
2017-12-09T13:14:02.185Z,1212.00
2017-12-09T13:15:55.145Z,1312.00
2017-12-09T13:16:55.136Z,1332.00
2017-12-09T13:18:48.125Z,1384.00
2017-12-09T13:19:48.089Z,1664.00
2017-12-09T13:21:41.063Z,1792.00
2017-12-09T13:22:41.046Z,1880.00
2017-12-09T13:24:34.022Z,1928.00
2017-12-09T13:25:34.002Z,1912.00
2017-12-09T13:27:26.994Z,2124.00
2017-12-09T13:28:26.962Z,1816.00
2017-12-09T13:30:19.932Z,1544.00
2017-12-09T13:31:20.005Z,1212.00
2017-12-09T13:33:12.864Z,1292.00
2017-12-09T13:34:12.960Z,1448.00
2017-12-09T13:36:05.826Z,1468.00
2017-12-09T13:37:05.824Z,1708.00
2017-12-09T13:38:58.774Z,1596.00
2017-12-09T13:39:58.770Z,1480.00
2017-12-09T13:41:51.710Z,1400.00
2017-12-09T13:42:51.723Z,1400.00
2017-12-09T13:44:44.683Z,1316.00
2017-12-09T13:45:44.677Z,1188.00
2017-12-09T13:47:37.618Z,1252.00
2017-12-09T13:48:37.633Z,1068.00
2017-12-09T13:50:30.553Z,948.00
2017-12-09T13:51:30.551Z,1052.00
2017-12-09T13:53:23.528Z,1116.00
2017-12-09T13:54:23.542Z,1004.00
2017-12-09T13:56:23.997Z,948.00
2017-12-09T13:57:23.976Z,1008.00
2017-12-09T13:59:17.493Z,992.00
2017-12-09T14:00:17.438Z,1024.00
2017-12-09T14:02:10.377Z,1056.00
2017-12-09T14:03:10.390Z,984.00
2017-12-09T14:05:03.351Z,912.00
2017-12-09T14:06:03.346Z,928.00
2017-12-09T14:07:56.316Z,848.00
2017-12-09T14:08:56.299Z,868.00
2017-12-09T14:10:49.262Z,976.00
2017-12-09T14:11:49.255Z,800.00
2017-12-09T14:13:42.195Z,764.00
2017-12-09T14:14:42.213Z,728.00
2017-12-09T14:16:35.167Z,680.00
2017-12-09T14:17:35.165Z,604.00
2017-12-09T14:19:29.149Z,596.00
2017-12-09T14:20:29.147Z,596.00
2017-12-09T14:22:22.048Z,760.00
2017-12-09T14:23:22.063Z,684.00
2017-12-09T14:25:14.981Z,568.00
2017-12-09T14:26:14.981Z,556.00
2017-12-09T14:28:09.886Z,444.00
2017-12-09T14:29:09.894Z,432.00
2017-12-09T14:31:02.816Z,348.00
2017-12-09T14:32:02.812Z,304.00
2017-12-09T14:33:56.217Z,308.00
2017-12-09T14:34:56.232Z,288.00
2017-12-09T14:36:49.156Z,236.00
2017-12-09T14:37:49.152Z,200.00
2017-12-09T14:39:42.564Z,176.00
2017-12-09T14:40:42.563Z,164.00
2017-12-09T14:42:35.952Z,140.00
2017-12-09T14:43:35.974Z,144.00
2017-12-09T14:45:28.888Z,180.00
2017-12-09T14:46:28.884Z,208.00
2017-12-09T14:48:23.333Z,248.00
2017-12-09T14:49:23.294Z,292.00
2017-12-09T14:51:16.226Z,308.00
2017-12-09T14:52:16.241Z,336.00
2017-12-09T14:54:09.135Z,296.00
2017-12-09T14:55:09.143Z,248.00
2017-12-09T14:57:02.574Z,180.00
2017-12-09T14:58:02.551Z,176.00
2017-12-09T14:59:55.525Z,156.00
2017-12-09T15:00:55.517Z,140.00
2017-12-09T15:02:49.488Z,116.00
2017-12-09T15:03:49.503Z,120.00
2017-12-09T15:05:42.474Z,100.00
2017-12-09T15:06:42.453Z,96.00
2017-12-09T15:08:35.388Z,72.00
2017-12-09T15:09:35.403Z,80.00
2017-12-09T15:11:28.360Z,68.00
2017-12-09T15:12:28.355Z,60.00
2017-12-09T15:14:22.130Z,48.00
2017-12-09T15:15:21.827Z,48.00
2017-12-09T15:17:15.810Z,44.00
2017-12-09T15:18:15.806Z,44.00
2017-12-09T15:20:08.727Z,32.00
2017-12-09T15:21:08.726Z,28.00
2017-12-09T15:23:01.635Z,20.00
2017-12-09T15:24:01.644Z,20.00
2017-12-09T15:25:54.562Z,12.00
2017-12-09T15:26:54.559Z,12.00
2017-12-09T15:28:48.968Z,8.00
2017-12-09T15:29:48.976Z,8.00
2017-12-09T15:31:42.387Z,8.00
2017-12-09T15:32:42.385Z,4.00
2017-12-09T15:34:35.324Z,4.00
2017-12-09T15:35:35.302Z,4.00
2017-12-09T15:37:28.724Z,4.00
2017-12-09T15:38:28.720Z,4.00
2017-12-09T15:40:22.640Z,0.00
2017-12-09T15:41:22.629Z,0.00
2017-12-09T15:43:15.526Z,0.00
2017-12-09T15:44:15.542Z,0.00
2017-12-09T15:46:08.459Z,0.00
2017-12-09T15:47:08.455Z,0.00
2017-12-09T15:49:02.859Z,0.00
2017-12-09T15:50:02.872Z,0.00
2017-12-09T15:51:55.791Z,0.00
2017-12-09T15:52:55.787Z,0.00
2017-12-09T15:54:49.247Z,0.00
2017-12-09T15:55:49.227Z,0.00
2017-12-09T15:57:42.692Z,0.00
2017-12-09T15:58:42.688Z,0.00
2017-12-09T16:00:36.160Z,0.00
2017-12-09T16:01:36.155Z,0.00
2017-12-09T16:03:30.150Z,0.00
2017-12-09T16:04:30.132Z,0.00
2017-12-09T16:06:23.544Z,0.00
2017-12-09T16:07:23.538Z,0.00
2017-12-09T16:09:16.535Z,0.00
2017-12-09T16:10:16.553Z,0.00
2017-12-09T16:12:09.521Z,0.00
2017-12-09T16:13:09.506Z,0.00
2017-12-09T16:15:02.468Z,0.00
2017-12-09T16:16:02.461Z,0.00
2017-12-09T16:17:56.430Z,0.00
2017-12-09T16:18:56.437Z,0.00
2017-12-09T16:20:50.436Z,0.00
2017-12-09T16:21:50.416Z,0.00
2017-12-09T16:23:43.360Z,0.00
2017-12-09T16:24:43.374Z,0.00
2017-12-09T16:26:37.376Z,0.00
2017-12-09T16:27:37.376Z,0.00
2017-12-09T16:29:31.330Z,0.00
2017-12-09T16:30:31.337Z,0.00
2017-12-09T16:32:24.819Z,0.00
2017-12-09T16:33:24.871Z,0.00
2017-12-09T16:35:19.376Z,0.00
2017-12-09T16:36:19.287Z,0.00
2017-12-09T16:38:12.224Z,0.00
2017-12-09T16:39:12.238Z,0.00
2017-12-09T16:41:05.199Z,0.00
2017-12-09T16:42:05.193Z,0.00
2017-12-09T16:43:59.184Z,0.00
2017-12-09T16:44:59.173Z,0.00
2017-12-09T16:46:52.143Z,0.00
2017-12-09T16:47:52.127Z,0.00
2017-12-09T16:49:45.079Z,0.00
2017-12-09T16:50:45.152Z,0.00
2017-12-09T16:52:38.004Z,0.00
2017-12-09T16:53:38.000Z,0.00
2017-12-09T16:55:30.990Z,0.00
2017-12-09T16:56:30.988Z,0.00
2017-12-09T16:58:23.935Z,0.00
2017-12-09T16:59:23.951Z,0.00
2017-12-09T17:01:16.937Z,0.00
2017-12-09T17:02:16.899Z,0.00
2017-12-09T17:04:11.672Z,0.00
2017-12-09T17:05:11.093Z,0.00
2017-12-09T17:07:04.038Z,0.00
2017-12-09T17:08:04.032Z,0.00
2017-12-09T17:09:56.975Z,0.00
2017-12-09T17:10:56.984Z,0.00
2017-12-09T17:12:51.541Z,0.00
2017-12-09T17:13:51.476Z,0.00
2017-12-09T17:15:44.944Z,0.00
2017-12-09T17:16:44.942Z,0.00
2017-12-09T17:18:38.909Z,0.00
2017-12-09T17:19:38.920Z,0.00
2017-12-09T17:21:31.880Z,0.00
2017-12-09T17:22:31.877Z,0.00
2017-12-09T17:24:25.328Z,0.00
2017-12-09T17:25:25.343Z,0.00
2017-12-09T17:27:18.299Z,0.00
2017-12-09T17:28:18.297Z,0.00
2017-12-09T17:30:11.235Z,0.00
2017-12-09T17:31:11.248Z,0.00
2017-12-09T17:33:04.620Z,0.00
2017-12-09T17:34:04.617Z,0.00
2017-12-09T17:35:57.587Z,0.00
2017-12-09T17:36:57.584Z,0.00
2017-12-09T17:38:51.022Z,0.00
2017-12-09T17:39:51.034Z,0.00
2017-12-09T17:41:45.174Z,0.00
2017-12-09T17:42:45.169Z,0.00
2017-12-09T17:44:38.677Z,0.00
2017-12-09T17:45:38.690Z,0.00
2017-12-09T17:47:32.161Z,0.00
2017-12-09T17:48:32.150Z,0.00
2017-12-09T17:50:25.098Z,0.00
2017-12-09T17:51:25.105Z,0.00
2017-12-09T17:53:19.751Z,0.00
2017-12-09T17:54:19.732Z,0.00
2017-12-09T17:56:12.695Z,0.00
2017-12-09T17:57:12.643Z,0.00
2017-12-09T17:59:05.535Z,0.00
2017-12-09T18:00:05.549Z,0.00
2017-12-09T18:01:58.472Z,0.00
2017-12-09T18:02:58.456Z,0.00
2017-12-09T18:04:51.347Z,0.00
2017-12-09T18:05:51.362Z,0.00
2017-12-09T18:07:44.285Z,0.00
2017-12-09T18:08:44.281Z,0.00
2017-12-09T18:10:37.239Z,0.00
2017-12-09T18:11:37.212Z,0.00
2017-12-09T18:13:30.154Z,0.00
2017-12-09T18:14:30.141Z,0.00
2017-12-09T18:16:23.127Z,0.00
2017-12-09T18:17:23.065Z,0.00
2017-12-09T18:19:15.964Z,0.00
2017-12-09T18:20:15.989Z,0.00
2017-12-09T18:22:08.890Z,0.00
2017-12-09T18:23:08.885Z,0.00
2017-12-09T18:25:01.781Z,0.00
2017-12-09T18:26:01.794Z,0.00
2017-12-09T18:27:54.702Z,0.00
2017-12-09T18:28:54.699Z,0.00
2017-12-09T18:30:47.589Z,0.00